Terminal Aerodrome Forecast
Issued by NWS

Home | Current Version | Previous Version | Text Only | Print | Product List | Glossary On
Versions: 1 2 3 4 5 6 7 8 9 10 11 12 13 14 15 16 17 18 19 20 21 22 23 24 25 26 27 28 29 30 31 32 33 34 35 36 37 38 39 40 41 42
506
FTUS45 KGJT 150118 AAK
TAFTEX
TAF AMD
KTEX 150118Z 1501/1524 25012G25KT P6SM SCT015 BKN025
      TEMPO 1501/1504 1SM -SN BKN015 OVC030
     FM150600 27009KT P6SM VCSH OVC050
     FM151000 27008KT 3SM BR VCSH SCT010 OVC030=

USA.gov is the U.S. government's official web portal to all federal, state and local government web resources and services.